sensor_id;sensor_type;location;lat;lon;timestamp;temperature;humidity
72126;SHT31;59999;51.676;22.650;2023-07-31T00:00:02;18.31;82.59
72126;SHT31;59999;51.676;22.650;2023-07-31T00:02:28;18.30;82.57
72126;SHT31;59999;51.676;22.650;2023-07-31T00:04:54;18.31;82.83
72126;SHT31;59999;51.676;22.650;2023-07-31T00:07:20;18.31;82.69
72126;SHT31;59999;51.676;22.650;2023-07-31T00:09:46;18.31;82.63
72126;SHT31;59999;51.676;22.650;2023-07-31T00:12:12;18.27;82.58
72126;SHT31;59999;51.676;22.650;2023-07-31T00:14:38;18.25;82.58
72126;SHT31;59999;51.676;22.650;2023-07-31T00:17:04;18.27;82.39
72126;SHT31;59999;51.676;22.650;2023-07-31T00:19:30;18.25;82.43
72126;SHT31;59999;51.676;22.650;2023-07-31T00:21:56;18.28;82.36
72126;SHT31;59999;51.676;22.650;2023-07-31T00:24:22;18.25;82.36
72126;SHT31;59999;51.676;22.650;2023-07-31T00:26:47;18.28;82.29
72126;SHT31;59999;51.676;22.650;2023-07-31T00:29:13;18.27;82.24
72126;SHT31;59999;51.676;22.650;2023-07-31T00:31:39;18.24;82.26
72126;SHT31;59999;51.676;22.650;2023-07-31T00:34:05;18.27;82.04
72126;SHT31;59999;51.676;22.650;2023-07-31T00:36:31;18.25;82.08
72126;SHT31;59999;51.676;22.650;2023-07-31T00:38:57;18.24;81.99
72126;SHT31;59999;51.676;22.650;2023-07-31T00:41:23;18.21;82.11
72126;SHT31;59999;51.676;22.650;2023-07-31T00:43:49;18.21;82.08
72126;SHT31;59999;51.676;22.650;2023-07-31T00:46:14;18.21;82.20
72126;SHT31;59999;51.676;22.650;2023-07-31T00:48:41;18.18;82.43
72126;SHT31;59999;51.676;22.650;2023-07-31T00:51:07;18.18;82.36
72126;SHT31;59999;51.676;22.650;2023-07-31T00:53:34;18.18;82.31
72126;SHT31;59999;51.676;22.650;2023-07-31T00:56:00;18.17;82.40
72126;SHT31;59999;51.676;22.650;2023-07-31T00:58:26;18.15;82.43
72126;SHT31;59999;51.676;22.650;2023-07-31T01:00:52;18.14;82.44
72126;SHT31;59999;51.676;22.650;2023-07-31T01:03:18;18.14;82.48
72126;SHT31;59999;51.676;22.650;2023-07-31T01:08:29;18.08;82.80
72126;SHT31;59999;51.676;22.650;2023-07-31T01:11:04;18.07;82.94
72126;SHT31;59999;51.676;22.650;2023-07-31T01:13:33;18.05;83.08
72126;SHT31;59999;51.676;22.650;2023-07-31T01:15:59;18.04;83.10
72126;SHT31;59999;51.676;22.650;2023-07-31T01:18:25;18.01;83.16
72126;SHT31;59999;51.676;22.650;2023-07-31T01:21:02;18.01;83.25
72126;SHT31;59999;51.676;22.650;2023-07-31T01:23:42;17.98;83.31
72126;SHT31;59999;51.676;22.650;2023-07-31T01:26:13;17.98;83.39
72126;SHT31;59999;51.676;22.650;2023-07-31T01:28:50;17.98;83.38
72126;SHT31;59999;51.676;22.650;2023-07-31T01:31:23;17.96;83.45
72126;SHT31;59999;51.676;22.650;2023-07-31T01:33:53;17.94;83.61
72126;SHT31;59999;51.676;22.650;2023-07-31T01:36:20;17.96;83.66
72126;SHT31;59999;51.676;22.650;2023-07-31T01:38:46;17.93;83.68
72126;SHT31;59999;51.676;22.650;2023-07-31T01:41:12;17.90;83.80
72126;SHT31;59999;51.676;22.650;2023-07-31T01:43:39;17.87;83.82
72126;SHT31;59999;51.676;22.650;2023-07-31T01:46:05;17.86;83.99
72126;SHT31;59999;51.676;22.650;2023-07-31T01:48:31;17.84;84.12
72126;SHT31;59999;51.676;22.650;2023-07-31T01:51:01;17.77;84.22
72126;SHT31;59999;51.676;22.650;2023-07-31T01:53:28;17.74;84.30
72126;SHT31;59999;51.676;22.650;2023-07-31T01:55:54;17.69;84.60
72126;SHT31;59999;51.676;22.650;2023-07-31T01:58:20;17.67;84.76
72126;SHT31;59999;51.676;22.650;2023-07-31T02:00:47;17.63;84.93
72126;SHT31;59999;51.676;22.650;2023-07-31T02:03:13;17.62;84.87
72126;SHT31;59999;51.676;22.650;2023-07-31T02:05:46;17.62;84.98
72126;SHT31;59999;51.676;22.650;2023-07-31T02:08:12;17.59;85.05
72126;SHT31;59999;51.676;22.650;2023-07-31T02:10:38;17.57;85.16
72126;SHT31;59999;51.676;22.650;2023-07-31T02:13:04;17.56;85.18
72126;SHT31;59999;51.676;22.650;2023-07-31T02:15:30;17.53;85.28
72126;SHT31;59999;51.676;22.650;2023-07-31T02:17:56;17.50;85.38
72126;SHT31;59999;51.676;22.650;2023-07-31T02:20:22;17.50;85.45
72126;SHT31;59999;51.676;22.650;2023-07-31T02:22:48;17.47;85.57
72126;SHT31;59999;51.676;22.650;2023-07-31T02:25:14;17.46;85.53
72126;SHT31;59999;51.676;22.650;2023-07-31T02:27:40;17.43;85.70
72126;SHT31;59999;51.676;22.650;2023-07-31T02:30:06;17.40;85.87
72126;SHT31;59999;51.676;22.650;2023-07-31T02:32:33;17.40;85.93
72126;SHT31;59999;51.676;22.650;2023-07-31T02:34:58;17.34;86.11
72126;SHT31;59999;51.676;22.650;2023-07-31T02:37:25;17.34;86.15
72126;SHT31;59999;51.676;22.650;2023-07-31T02:39:51;17.29;86.31
72126;SHT31;59999;51.676;22.650;2023-07-31T02:42:17;17.28;86.38
72126;SHT31;59999;51.676;22.650;2023-07-31T02:44:43;17.26;86.43
72126;SHT31;59999;51.676;22.650;2023-07-31T02:47:09;17.25;86.49
72126;SHT31;59999;51.676;22.650;2023-07-31T02:49:34;17.24;86.48
72126;SHT31;59999;51.676;22.650;2023-07-31T02:52:01;17.24;86.63
72126;SHT31;59999;51.676;22.650;2023-07-31T02:54:26;17.21;86.61
72126;SHT31;59999;51.676;22.650;2023-07-31T02:56:52;17.19;86.70
72126;SHT31;59999;51.676;22.650;2023-07-31T02:59:20;17.18;86.73
72126;SHT31;59999;51.676;22.650;2023-07-31T03:01:46;17.15;86.73
72126;SHT31;59999;51.676;22.650;2023-07-31T03:04:12;17.17;86.78
72126;SHT31;59999;51.676;22.650;2023-07-31T03:06:38;17.17;86.69
72126;SHT31;59999;51.676;22.650;2023-07-31T03:09:03;17.21;86.70
72126;SHT31;59999;51.676;22.650;2023-07-31T03:11:29;17.22;86.60
72126;SHT31;59999;51.676;22.650;2023-07-31T03:13:55;17.22;86.65
72126;SHT31;59999;51.676;22.650;2023-07-31T03:16:21;17.22;86.69
72126;SHT31;59999;51.676;22.650;2023-07-31T03:18:47;17.24;86.64
72126;SHT31;59999;51.676;22.650;2023-07-31T03:21:14;17.22;86.51
72126;SHT31;59999;51.676;22.650;2023-07-31T03:23:40;17.26;86.33
72126;SHT31;59999;51.676;22.650;2023-07-31T03:26:07;17.26;86.23
72126;SHT31;59999;51.676;22.650;2023-07-31T03:28:33;17.25;86.21
72126;SHT31;59999;51.676;22.650;2023-07-31T03:30:59;17.26;86.21
72126;SHT31;59999;51.676;22.650;2023-07-31T03:33:26;17.25;86.31
72126;SHT31;59999;51.676;22.650;2023-07-31T03:35:52;17.26;86.29
72126;SHT31;59999;51.676;22.650;2023-07-31T03:38:18;17.28;86.25
72126;SHT31;59999;51.676;22.650;2023-07-31T03:40:46;17.28;86.20
72126;SHT31;59999;51.676;22.650;2023-07-31T03:43:12;17.29;86.19
72126;SHT31;59999;51.676;22.650;2023-07-31T03:45:40;17.32;86.02
72126;SHT31;59999;51.676;22.650;2023-07-31T03:48:06;17.31;86.21
72126;SHT31;59999;51.676;22.650;2023-07-31T03:50:33;17.31;86.12
72126;SHT31;59999;51.676;22.650;2023-07-31T03:52:59;17.35;86.04
72126;SHT31;59999;51.676;22.650;2023-07-31T03:55:25;17.34;86.04
72126;SHT31;59999;51.676;22.650;2023-07-31T03:57:51;17.36;85.83
72126;SHT31;59999;51.676;22.650;2023-07-31T04:00:17;17.36;86.04
72126;SHT31;59999;51.676;22.650;2023-07-31T04:02:43;17.39;85.92
72126;SHT31;59999;51.676;22.650;2023-07-31T04:05:09;17.40;85.86
72126;SHT31;59999;51.676;22.650;2023-07-31T04:07:35;17.45;85.50
72126;SHT31;59999;51.676;22.650;2023-07-31T04:10:01;17.47;85.42
72126;SHT31;59999;51.676;22.650;2023-07-31T04:12:27;17.50;85.37
72126;SHT31;59999;51.676;22.650;2023-07-31T04:14:53;17.57;85.29
72126;SHT31;59999;51.676;22.650;2023-07-31T04:17:18;17.62;84.82
72126;SHT31;59999;51.676;22.650;2023-07-31T04:19:44;17.67;84.54
72126;SHT31;59999;51.676;22.650;2023-07-31T04:22:10;17.70;84.37
72126;SHT31;59999;51.676;22.650;2023-07-31T04:24:36;17.72;84.32
72126;SHT31;59999;51.676;22.650;2023-07-31T04:27:02;17.74;84.26
72126;SHT31;59999;51.676;22.650;2023-07-31T04:29:28;17.77;84.14
72126;SHT31;59999;51.676;22.650;2023-07-31T04:31:54;17.82;83.91
72126;SHT31;59999;51.676;22.650;2023-07-31T04:34:20;17.82;83.70
72126;SHT31;59999;51.676;22.650;2023-07-31T04:36:46;17.87;83.63
72126;SHT31;59999;51.676;22.650;2023-07-31T04:39:12;17.91;83.35
72126;SHT31;59999;51.676;22.650;2023-07-31T04:41:38;17.93;83.41
72126;SHT31;59999;51.676;22.650;2023-07-31T04:44:06;17.97;82.85
72126;SHT31;59999;51.676;22.650;2023-07-31T04:46:32;18.01;82.56
72126;SHT31;59999;51.676;22.650;2023-07-31T04:48:58;18.07;82.57
72126;SHT31;59999;51.676;22.650;2023-07-31T04:51:24;18.10;82.47
72126;SHT31;59999;51.676;22.650;2023-07-31T04:53:51;18.18;82.17
72126;SHT31;59999;51.676;22.650;2023-07-31T04:56:16;18.23;81.87
72126;SHT31;59999;51.676;22.650;2023-07-31T04:58:42;18.30;82.03
72126;SHT31;59999;51.676;22.650;2023-07-31T05:01:08;18.31;81.40
72126;SHT31;59999;51.676;22.650;2023-07-31T05:03:34;18.35;81.27
72126;SHT31;59999;51.676;22.650;2023-07-31T05:06:00;18.38;81.08
72126;SHT31;59999;51.676;22.650;2023-07-31T05:08:26;18.45;80.57
72126;SHT31;59999;51.676;22.650;2023-07-31T05:10:51;18.45;80.91
72126;SHT31;59999;51.676;22.650;2023-07-31T05:13:17;18.48;80.65
72126;SHT31;59999;51.676;22.650;2023-07-31T05:15:43;18.48;80.48
72126;SHT31;59999;51.676;22.650;2023-07-31T05:18:09;18.61;80.50
72126;SHT31;59999;51.676;22.650;2023-07-31T05:20:35;18.61;80.33
72126;SHT31;59999;51.676;22.650;2023-07-31T05:23:02;18.65;79.54
72126;SHT31;59999;51.676;22.650;2023-07-31T05:25:28;18.68;79.92
72126;SHT31;59999;51.676;22.650;2023-07-31T05:27:54;18.68;79.47
72126;SHT31;59999;51.676;22.650;2023-07-31T05:30:20;18.66;79.62
72126;SHT31;59999;51.676;22.650;2023-07-31T05:32:47;18.65;79.48
72126;SHT31;59999;51.676;22.650;2023-07-31T05:35:12;18.66;79.84
72126;SHT31;59999;51.676;22.650;2023-07-31T05:37:39;18.73;79.68
72126;SHT31;59999;51.676;22.650;2023-07-31T05:40:06;18.76;79.61
72126;SHT31;59999;51.676;22.650;2023-07-31T05:42:32;18.79;79.54
72126;SHT31;59999;51.676;22.650;2023-07-31T05:44:58;18.82;79.06
72126;SHT31;59999;51.676;22.650;2023-07-31T05:47:24;18.88;78.60
72126;SHT31;59999;51.676;22.650;2023-07-31T05:49:49;18.93;78.77
72126;SHT31;59999;51.676;22.650;2023-07-31T05:52:19;19.03;78.20
72126;SHT31;59999;51.676;22.650;2023-07-31T05:54:45;19.14;78.28
72126;SHT31;59999;51.676;22.650;2023-07-31T05:57:11;19.27;77.87
72126;SHT31;59999;51.676;22.650;2023-07-31T05:59:37;19.41;77.38
72126;SHT31;59999;51.676;22.650;2023-07-31T06:02:04;19.57;76.47
72126;SHT31;59999;51.676;22.650;2023-07-31T06:04:30;19.61;75.91
72126;SHT31;59999;51.676;22.650;2023-07-31T06:06:56;19.75;75.96
72126;SHT31;59999;51.676;22.650;2023-07-31T07:29:17;22.83;63.18
72126;SHT31;59999;51.676;22.650;2023-07-31T07:31:43;22.79;64.49
72126;SHT31;59999;51.676;22.650;2023-07-31T07:34:09;22.87;63.61
72126;SHT31;59999;51.676;22.650;2023-07-31T07:36:35;22.76;63.59
72126;SHT31;59999;51.676;22.650;2023-07-31T07:39:01;22.72;63.66
72126;SHT31;59999;51.676;22.650;2023-07-31T07:41:28;22.69;64.59
72126;SHT31;59999;51.676;22.650;2023-07-31T07:43:54;22.66;64.47
72126;SHT31;59999;51.676;22.650;2023-07-31T07:46:20;22.52;65.11
72126;SHT31;59999;51.676;22.650;2023-07-31T07:48:45;22.55;64.47
72126;SHT31;59999;51.676;22.650;2023-07-31T07:51:11;22.58;65.17
72126;SHT31;59999;51.676;22.650;2023-07-31T07:53:37;22.62;65.37
72126;SHT31;59999;51.676;22.650;2023-07-31T07:56:03;22.65;65.70
72126;SHT31;59999;51.676;22.650;2023-07-31T07:58:29;22.82;64.25
72126;SHT31;59999;51.676;22.650;2023-07-31T08:00:56;22.86;63.56
72126;SHT31;59999;51.676;22.650;2023-07-31T08:03:21;22.96;64.04
72126;SHT31;59999;51.676;22.650;2023-07-31T08:05:48;22.97;63.09
72126;SHT31;59999;51.676;22.650;2023-07-31T08:08:15;23.06;64.71
72126;SHT31;59999;51.676;22.650;2023-07-31T08:10:45;23.04;61.06
72126;SHT31;59999;51.676;22.650;2023-07-31T08:13:11;23.21;61.52
72126;SHT31;59999;51.676;22.650;2023-07-31T08:15:38;23.28;60.95
72126;SHT31;59999;51.676;22.650;2023-07-31T08:18:03;23.37;62.02
72126;SHT31;59999;51.676;22.650;2023-07-31T08:20:30;23.31;61.60
72126;SHT31;59999;51.676;22.650;2023-07-31T08:22:56;23.33;61.55
72126;SHT31;59999;51.676;22.650;2023-07-31T08:25:22;23.37;62.81
72126;SHT31;59999;51.676;22.650;2023-07-31T08:27:48;23.38;60.67
72126;SHT31;59999;51.676;22.650;2023-07-31T08:30:14;23.35;59.82
72126;SHT31;59999;51.676;22.650;2023-07-31T08:32:39;23.54;60.65
72126;SHT31;59999;51.676;22.650;2023-07-31T08:35:06;23.54;58.85
72126;SHT31;59999;51.676;22.650;2023-07-31T08:37:31;23.58;61.29
72126;SHT31;59999;51.676;22.650;2023-07-31T08:39:57;23.59;59.74
72126;SHT31;59999;51.676;22.650;2023-07-31T08:42:23;23.65;59.72
72126;SHT31;59999;51.676;22.650;2023-07-31T08:44:52;23.83;60.09
72126;SHT31;59999;51.676;22.650;2023-07-31T08:47:19;23.96;59.22
72126;SHT31;59999;51.676;22.650;2023-07-31T08:49:47;24.08;57.02
72126;SHT31;59999;51.676;22.650;2023-07-31T08:52:13;24.10;57.40
72126;SHT31;59999;51.676;22.650;2023-07-31T08:54:39;24.05;56.35
72126;SHT31;59999;51.676;22.650;2023-07-31T08:57:06;23.95;57.80
72126;SHT31;59999;51.676;22.650;2023-07-31T08:59:34;23.83;57.11
72126;SHT31;59999;51.676;22.650;2023-07-31T09:02:09;23.78;59.33
72126;SHT31;59999;51.676;22.650;2023-07-31T09:04:36;23.81;58.94
72126;SHT31;59999;51.676;22.650;2023-07-31T09:07:03;23.79;59.21
72126;SHT31;59999;51.676;22.650;2023-07-31T09:09:31;23.75;57.09
72126;SHT31;59999;51.676;22.650;2023-07-31T09:12:00;23.74;58.72
72126;SHT31;59999;51.676;22.650;2023-07-31T09:14:26;23.74;59.89
72126;SHT31;59999;51.676;22.650;2023-07-31T09:16:56;23.68;58.16
72126;SHT31;59999;51.676;22.650;2023-07-31T09:19:29;23.69;59.88
72126;SHT31;59999;51.676;22.650;2023-07-31T09:21:55;23.68;57.83
72126;SHT31;59999;51.676;22.650;2023-07-31T09:24:28;23.47;57.47
72126;SHT31;59999;51.676;22.650;2023-07-31T09:26:56;23.40;59.22
72126;SHT31;59999;51.676;22.650;2023-07-31T09:29:22;23.30;58.92
72126;SHT31;59999;51.676;22.650;2023-07-31T09:31:48;23.24;59.88
72126;SHT31;59999;51.676;22.650;2023-07-31T09:34:14;23.16;59.92
72126;SHT31;59999;51.676;22.650;2023-07-31T09:36:48;23.24;60.63
72126;SHT31;59999;51.676;22.650;2023-07-31T09:39:17;23.30;60.59
72126;SHT31;59999;51.676;22.650;2023-07-31T09:41:45;23.43;60.72
72126;SHT31;59999;51.676;22.650;2023-07-31T09:44:13;23.55;60.71
72126;SHT31;59999;51.676;22.650;2023-07-31T09:46:39;23.61;59.62
72126;SHT31;59999;51.676;22.650;2023-07-31T09:49:11;23.47;59.36
72126;SHT31;59999;51.676;22.650;2023-07-31T09:51:38;23.44;60.92
72126;SHT31;59999;51.676;22.650;2023-07-31T09:54:15;23.41;60.38
72126;SHT31;59999;51.676;22.650;2023-07-31T09:56:48;23.31;61.40
72126;SHT31;59999;51.676;22.650;2023-07-31T09:59:17;23.34;59.77
72126;SHT31;59999;51.676;22.650;2023-07-31T10:01:45;23.38;60.04
72126;SHT31;59999;51.676;22.650;2023-07-31T10:04:13;23.57;61.20
72126;SHT31;59999;51.676;22.650;2023-07-31T10:06:40;23.72;59.45
72126;SHT31;59999;51.676;22.650;2023-07-31T10:09:10;23.81;58.53
72126;SHT31;59999;51.676;22.650;2023-07-31T10:11:46;23.81;57.56
72126;SHT31;59999;51.676;22.650;2023-07-31T10:14:20;23.82;58.81
72126;SHT31;59999;51.676;22.650;2023-07-31T10:16:46;23.95;60.55
72126;SHT31;59999;51.676;22.650;2023-07-31T10:19:13;24.08;57.25
72126;SHT31;59999;51.676;22.650;2023-07-31T10:21:41;24.06;54.94
72126;SHT31;59999;51.676;22.650;2023-07-31T10:24:08;24.14;54.71
72126;SHT31;59999;51.676;22.650;2023-07-31T10:26:35;24.14;55.74
72126;SHT31;59999;51.676;22.650;2023-07-31T10:29:05;24.27;56.32
72126;SHT31;59999;51.676;22.650;2023-07-31T10:31:31;24.30;52.86
72126;SHT31;59999;51.676;22.650;2023-07-31T10:33:58;24.41;53.06
72126;SHT31;59999;51.676;22.650;2023-07-31T10:36:25;24.39;53.20
72126;SHT31;59999;51.676;22.650;2023-07-31T10:38:52;24.46;54.19
72126;SHT31;59999;51.676;22.650;2023-07-31T10:41:30;24.71;54.11
72126;SHT31;59999;51.676;22.650;2023-07-31T10:44:01;24.84;52.49
72126;SHT31;59999;51.676;22.650;2023-07-31T10:46:30;25.04;53.67
72126;SHT31;59999;51.676;22.650;2023-07-31T10:49:00;25.08;53.86
72126;SHT31;59999;51.676;22.650;2023-07-31T10:51:33;25.01;52.08
72126;SHT31;59999;51.676;22.650;2023-07-31T10:54:27;24.68;52.46
72126;SHT31;59999;51.676;22.650;2023-07-31T10:56:52;24.60;54.33
72126;SHT31;59999;51.676;22.650;2023-07-31T10:59:18;24.61;55.89
72126;SHT31;59999;51.676;22.650;2023-07-31T11:01:56;24.61;55.63
72126;SHT31;59999;51.676;22.650;2023-07-31T11:04:28;24.71;54.36
72126;SHT31;59999;51.676;22.650;2023-07-31T11:06:58;24.84;54.37
72126;SHT31;59999;51.676;22.650;2023-07-31T11:09:28;24.98;54.57
72126;SHT31;59999;51.676;22.650;2023-07-31T11:11:55;25.18;55.18
72126;SHT31;59999;51.676;22.650;2023-07-31T11:14:22;25.16;54.95
72126;SHT31;59999;51.676;22.650;2023-07-31T11:16:51;25.32;54.92
72126;SHT31;59999;51.676;22.650;2023-07-31T11:19:24;25.40;56.03
72126;SHT31;59999;51.676;22.650;2023-07-31T11:21:53;25.63;55.84
72126;SHT31;59999;51.676;22.650;2023-07-31T11:24:19;25.73;54.48
72126;SHT31;59999;51.676;22.650;2023-07-31T11:26:52;25.93;54.62
72126;SHT31;59999;51.676;22.650;2023-07-31T11:29:19;25.90;54.18
72126;SHT31;59999;51.676;22.650;2023-07-31T11:31:47;25.88;53.70
72126;SHT31;59999;51.676;22.650;2023-07-31T11:34:13;25.88;53.46
72126;SHT31;59999;51.676;22.650;2023-07-31T11:36:39;25.91;52.23
72126;SHT31;59999;51.676;22.650;2023-07-31T11:39:09;25.71;53.34
72126;SHT31;59999;51.676;22.650;2023-07-31T11:41:35;25.56;53.91
72126;SHT31;59999;51.676;22.650;2023-07-31T11:44:02;25.25;54.05
72126;SHT31;59999;51.676;22.650;2023-07-31T11:46:30;24.92;54.68
72126;SHT31;59999;51.676;22.650;2023-07-31T11:49:00;24.72;55.10
72126;SHT31;59999;51.676;22.650;2023-07-31T11:51:27;24.68;56.26
72126;SHT31;59999;51.676;22.650;2023-07-31T11:54:00;24.82;54.61
72126;SHT31;59999;51.676;22.650;2023-07-31T11:56:28;25.09;54.05
72126;SHT31;59999;51.676;22.650;2023-07-31T11:58:59;25.23;54.02
72126;SHT31;59999;51.676;22.650;2023-07-31T12:01:26;25.45;54.48
72126;SHT31;59999;51.676;22.650;2023-07-31T12:03:53;25.49;54.73
72126;SHT31;59999;51.676;22.650;2023-07-31T12:06:20;25.33;53.40
72126;SHT31;59999;51.676;22.650;2023-07-31T12:08:47;25.32;54.54
72126;SHT31;59999;51.676;22.650;2023-07-31T12:11:13;25.22;52.99
72126;SHT31;59999;51.676;22.650;2023-07-31T12:13:41;25.33;54.55
72126;SHT31;59999;51.676;22.650;2023-07-31T12:16:07;25.59;54.64
72126;SHT31;59999;51.676;22.650;2023-07-31T12:18:37;25.45;52.37
72126;SHT31;59999;51.676;22.650;2023-07-31T12:21:08;25.53;51.85
72126;SHT31;59999;51.676;22.650;2023-07-31T12:23:36;25.67;51.22
72126;SHT31;59999;51.676;22.650;2023-07-31T12:26:17;25.83;51.76
72126;SHT31;59999;51.676;22.650;2023-07-31T12:28:49;25.69;50.75
72126;SHT31;59999;51.676;22.650;2023-07-31T12:31:20;25.45;51.53
72126;SHT31;59999;51.676;22.650;2023-07-31T12:33:48;25.43;51.71
72126;SHT31;59999;51.676;22.650;2023-07-31T12:36:20;25.32;52.15
72126;SHT31;59999;51.676;22.650;2023-07-31T12:38:47;25.22;52.76
72126;SHT31;59999;51.676;22.650;2023-07-31T12:41:13;25.32;51.40
72126;SHT31;59999;51.676;22.650;2023-07-31T12:43:41;25.15;53.06
72126;SHT31;59999;51.676;22.650;2023-07-31T12:46:07;25.15;53.18
72126;SHT31;59999;51.676;22.650;2023-07-31T12:48:34;24.96;52.04
72126;SHT31;59999;51.676;22.650;2023-07-31T12:51:00;24.89;52.64
72126;SHT31;59999;51.676;22.650;2023-07-31T12:53:27;24.82;53.09
72126;SHT31;59999;51.676;22.650;2023-07-31T12:55:53;24.75;53.74
72126;SHT31;59999;51.676;22.650;2023-07-31T12:58:19;24.61;53.63
72126;SHT31;59999;51.676;22.650;2023-07-31T13:00:45;24.44;52.71
72126;SHT31;59999;51.676;22.650;2023-07-31T13:03:11;24.37;52.95
72126;SHT31;59999;51.676;22.650;2023-07-31T13:05:37;24.30;52.76
72126;SHT31;59999;51.676;22.650;2023-07-31T13:08:03;24.43;53.24
72126;SHT31;59999;51.676;22.650;2023-07-31T13:10:29;24.63;53.22
72126;SHT31;59999;51.676;22.650;2023-07-31T13:12:56;24.85;52.34
72126;SHT31;59999;51.676;22.650;2023-07-31T13:15:22;25.12;51.45
72126;SHT31;59999;51.676;22.650;2023-07-31T13:17:48;25.43;51.51
72126;SHT31;59999;51.676;22.650;2023-07-31T13:20:14;25.50;50.46
72126;SHT31;59999;51.676;22.650;2023-07-31T13:22:40;25.51;50.27
72126;SHT31;59999;51.676;22.650;2023-07-31T13:25:06;25.49;51.12
72126;SHT31;59999;51.676;22.650;2023-07-31T13:27:33;25.67;50.89
72126;SHT31;59999;51.676;22.650;2023-07-31T13:29:59;25.87;49.90
72126;SHT31;59999;51.676;22.650;2023-07-31T13:32:25;25.94;49.14
72126;SHT31;59999;51.676;22.650;2023-07-31T13:34:51;26.08;49.15
72126;SHT31;59999;51.676;22.650;2023-07-31T13:37:18;26.24;47.33
72126;SHT31;59999;51.676;22.650;2023-07-31T13:39:44;26.18;46.98
72126;SHT31;59999;51.676;22.650;2023-07-31T13:42:10;26.07;46.52
72126;SHT31;59999;51.676;22.650;2023-07-31T13:44:41;26.08;46.60
72126;SHT31;59999;51.676;22.650;2023-07-31T13:47:08;26.13;45.86
72126;SHT31;59999;51.676;22.650;2023-07-31T13:49:35;26.09;44.79
72126;SHT31;59999;51.676;22.650;2023-07-31T13:52:02;26.00;45.55
72126;SHT31;59999;51.676;22.650;2023-07-31T13:54:28;26.15;45.46
72126;SHT31;59999;51.676;22.650;2023-07-31T13:56:54;26.02;43.20
72126;SHT31;59999;51.676;22.650;2023-07-31T13:59:20;25.98;43.57
72126;SHT31;59999;51.676;22.650;2023-07-31T14:01:47;26.07;44.48
72126;SHT31;59999;51.676;22.650;2023-07-31T14:04:13;25.76;43.75
72126;SHT31;59999;51.676;22.650;2023-07-31T14:06:39;25.47;43.11
72126;SHT31;59999;51.676;22.650;2023-07-31T14:09:05;25.26;44.75
72126;SHT31;59999;51.676;22.650;2023-07-31T14:11:32;25.07;46.23
72126;SHT31;59999;51.676;22.650;2023-07-31T14:13:58;24.92;46.75
72126;SHT31;59999;51.676;22.650;2023-07-31T14:16:24;24.88;47.00
72126;SHT31;59999;51.676;22.650;2023-07-31T14:18:50;24.75;46.61
72126;SHT31;59999;51.676;22.650;2023-07-31T14:21:16;24.67;46.78
72126;SHT31;59999;51.676;22.650;2023-07-31T14:23:42;24.67;47.78
72126;SHT31;59999;51.676;22.650;2023-07-31T14:26:08;24.68;48.32
72126;SHT31;59999;51.676;22.650;2023-07-31T14:28:34;24.63;48.54
72126;SHT31;59999;51.676;22.650;2023-07-31T14:31:00;24.61;47.91
72126;SHT31;59999;51.676;22.650;2023-07-31T14:33:26;24.63;47.66
72126;SHT31;59999;51.676;22.650;2023-07-31T14:35:52;24.64;46.70
72126;SHT31;59999;51.676;22.650;2023-07-31T14:38:18;24.51;46.38
72126;SHT31;59999;51.676;22.650;2023-07-31T14:40:44;24.54;47.04
72126;SHT31;59999;51.676;22.650;2023-07-31T14:43:10;24.67;45.36
72126;SHT31;59999;51.676;22.650;2023-07-31T14:45:36;24.88;45.31
72126;SHT31;59999;51.676;22.650;2023-07-31T14:48:02;24.88;44.60
72126;SHT31;59999;51.676;22.650;2023-07-31T14:50:28;24.87;44.35
72126;SHT31;59999;51.676;22.650;2023-07-31T14:52:54;24.82;44.20
72126;SHT31;59999;51.676;22.650;2023-07-31T14:55:20;24.81;45.07
72126;SHT31;59999;51.676;22.650;2023-07-31T14:57:46;24.75;45.60
72126;SHT31;59999;51.676;22.650;2023-07-31T15:00:13;24.71;44.94
72126;SHT31;59999;51.676;22.650;2023-07-31T15:02:39;24.68;45.98
72126;SHT31;59999;51.676;22.650;2023-07-31T15:05:06;24.57;45.68
72126;SHT31;59999;51.676;22.650;2023-07-31T15:07:33;24.54;46.13
72126;SHT31;59999;51.676;22.650;2023-07-31T15:09:59;24.54;45.80
72126;SHT31;59999;51.676;22.650;2023-07-31T15:12:26;24.94;45.83
72126;SHT31;59999;51.676;22.650;2023-07-31T15:14:52;25.69;42.99
72126;SHT31;59999;51.676;22.650;2023-07-31T15:17:18;26.71;41.60
72126;SHT31;59999;51.676;22.650;2023-07-31T15:19:44;27.72;40.57
72126;SHT31;59999;51.676;22.650;2023-07-31T15:22:10;28.35;38.60
72126;SHT31;59999;51.676;22.650;2023-07-31T15:24:36;29.09;35.49
72126;SHT31;59999;51.676;22.650;2023-07-31T15:27:02;29.67;36.30
72126;SHT31;59999;51.676;22.650;2023-07-31T15:29:29;30.20;35.53
72126;SHT31;59999;51.676;22.650;2023-07-31T15:31:55;29.83;35.49
72126;SHT31;59999;51.676;22.650;2023-07-31T15:34:21;29.74;36.51
72126;SHT31;59999;51.676;22.650;2023-07-31T15:36:48;29.08;35.89
72126;SHT31;59999;51.676;22.650;2023-07-31T15:39:14;28.47;36.63
72126;SHT31;59999;51.676;22.650;2023-07-31T15:41:40;27.68;38.44
72126;SHT31;59999;51.676;22.650;2023-07-31T15:44:07;27.17;39.91
72126;SHT31;59999;51.676;22.650;2023-07-31T15:46:33;26.45;40.88
72126;SHT31;59999;51.676;22.650;2023-07-31T15:48:59;25.91;42.44
72126;SHT31;59999;51.676;22.650;2023-07-31T15:51:25;25.43;43.08
72126;SHT31;59999;51.676;22.650;2023-07-31T15:53:52;24.94;44.57
72126;SHT31;59999;51.676;22.650;2023-07-31T15:56:18;24.65;44.92
72126;SHT31;59999;51.676;22.650;2023-07-31T16:01:30;24.24;45.67
72126;SHT31;59999;51.676;22.650;2023-07-31T16:03:56;24.10;46.89
72126;SHT31;59999;51.676;22.650;2023-07-31T16:06:21;24.05;46.86
72126;SHT31;59999;51.676;22.650;2023-07-31T16:08:47;24.19;46.68
72126;SHT31;59999;51.676;22.650;2023-07-31T16:11:13;24.39;46.72
72126;SHT31;59999;51.676;22.650;2023-07-31T16:13:39;24.71;47.29
72126;SHT31;59999;51.676;22.650;2023-07-31T16:16:05;25.20;46.47
72126;SHT31;59999;51.676;22.650;2023-07-31T16:18:31;25.53;44.18
72126;SHT31;59999;51.676;22.650;2023-07-31T16:20:57;25.54;44.12
72126;SHT31;59999;51.676;22.650;2023-07-31T16:23:23;25.59;43.96
72126;SHT31;59999;51.676;22.650;2023-07-31T16:25:49;25.88;43.80
72126;SHT31;59999;51.676;22.650;2023-07-31T16:28:16;26.39;43.39
72126;SHT31;59999;51.676;22.650;2023-07-31T16:30:42;26.86;42.21
72126;SHT31;59999;51.676;22.650;2023-07-31T16:33:09;26.97;42.25
72126;SHT31;59999;51.676;22.650;2023-07-31T16:35:35;26.78;41.07
72126;SHT31;59999;51.676;22.650;2023-07-31T16:38:01;26.52;42.85